Time;durP1;ratioP1;P1;durP2;ratioP2;P2;SDS_P1;SDS_P2;PMS_P1;PMS_P2;Temp;Humidity;BMP_temperature;BMP_pressure;BME280_temperature;BME280_humidity;BME280_pressure;Samples;Min_cycle;Max_cycle;Signal;HPM_P1;HPM_P2
2023/03/29 00:00:59;;;;;;;3.38;0.77;;;;;;;;;;4995282;28;20037;-69
2023/03/29 00:03:25;;;;;;;3.05;0.80;;;;;;;;;;5000778;28;20031;-69
2023/03/29 00:05:56;;;;;;;3.50;0.90;;;;;;;;;;5000657;28;20045;-69
2023/03/29 00:08:22;;;;;;;4.22;1.10;;;;;;;;;;4999498;28;20037;-69
2023/03/29 00:10:48;;;;;;;2.63;0.77;;;;;;;;;;4997864;28;20351;-69
2023/03/29 00:13:14;;;;;;;3.80;0.80;;;;;;;;;;4999889;28;20034;-69
2023/03/29 00:15:40;;;;;;;5.18;0.90;;;;;;;;;;5000485;28;20072;-71
2023/03/29 00:18:06;;;;;;;3.17;0.60;;;;;;;;;;5000176;28;20029;-70
2023/03/29 00:20:31;;;;;;;5.75;0.90;;;;;;;;;;4991514;28;20023;-69
2023/03/29 00:22:56;;;;;;;1.05;0.68;;;;;;;;;;4997948;28;20026;-69
2023/03/29 00:25:22;;;;;;;1.73;0.70;;;;;;;;;;4993663;28;20045;-70
2023/03/29 00:27:48;;;;;;;2.13;0.60;;;;;;;;;;4993004;28;20124;-69
2023/03/29 00:30:14;;;;;;;2.00;0.80;;;;;;;;;;4992410;28;20049;-69
2023/03/29 00:32:39;;;;;;;5.40;0.70;;;;;;;;;;4992901;28;20493;-69
2023/03/29 00:35:06;;;;;;;1.50;0.75;;;;;;;;;;4995613;28;20030;-69
2023/03/29 00:37:32;;;;;;;2.92;0.80;;;;;;;;;;4996305;28;20023;-69
2023/03/29 00:39:57;;;;;;;4.30;0.77;;;;;;;;;;4990835;28;20089;-69
2023/03/29 00:42:24;;;;;;;5.68;0.77;;;;;;;;;;4994016;28;20502;-69
2023/03/29 00:45:15;;;;;;;2.72;0.68;;;;;;;;;;4994021;28;20034;-70
2023/03/29 00:47:58;;;;;;;2.90;0.75;;;;;;;;;;4991317;28;20561;-69
2023/03/29 00:50:36;;;;;;;1.88;0.75;;;;;;;;;;4990555;28;20030;-68
2023/03/29 00:53:13;;;;;;;4.88;0.82;;;;;;;;;;5001083;28;20072;-69
2023/03/29 00:55:51;;;;;;;1.92;0.68;;;;;;;;;;5001646;28;20038;-69
2023/03/29 00:58:23;;;;;;;1.92;0.70;;;;;;;;;;5001711;28;20346;-69
2023/03/29 01:01:00;;;;;;;3.72;0.90;;;;;;;;;;5004573;28;20026;-70
2023/03/29 01:03:31;;;;;;;2.97;0.70;;;;;;;;;;5001337;28;20018;-69
2023/03/29 01:06:02;;;;;;;4.32;0.82;;;;;;;;;;5004003;28;20157;-70
2023/03/29 01:08:37;;;;;;;2.45;0.98;;;;;;;;;;5000330;28;20097;-70
2023/03/29 01:11:27;;;;;;;4.80;0.90;;;;;;;;;;4994218;28;20034;-69
2023/03/29 01:14:03;;;;;;;3.22;0.90;;;;;;;;;;4994062;28;20050;-69
2023/03/29 01:16:30;;;;;;;3.05;0.70;;;;;;;;;;4997624;28;20030;-69
2023/03/29 01:18:59;;;;;;;3.20;0.80;;;;;;;;;;4992730;28;20029;-69
2023/03/29 01:21:38;;;;;;;3.10;0.77;;;;;;;;;;4997239;28;20034;-68
2023/03/29 01:24:16;;;;;;;2.30;0.77;;;;;;;;;;4998725;28;20474;-69
2023/03/29 01:26:59;;;;;;;2.28;0.70;;;;;;;;;;4996251;28;20212;-69
2023/03/29 01:29:52;;;;;;;5.07;1.10;;;;;;;;;;4997466;28;20482;-69
2023/03/29 01:32:41;;;;;;;4.97;1.00;;;;;;;;;;4990393;28;20545;-69
2023/03/29 01:35:14;;;;;;;2.55;1.00;;;;;;;;;;4993826;28;20030;-69
2023/03/29 01:38:04;;;;;;;3.90;1.00;;;;;;;;;;4993772;28;20065;-70
2023/03/29 01:40:31;;;;;;;2.13;0.70;;;;;;;;;;4983601;28;20046;-69
2023/03/29 01:43:08;;;;;;;2.83;0.70;;;;;;;;;;4994510;28;20533;-69
2023/03/29 01:45:46;;;;;;;2.83;0.80;;;;;;;;;;4992230;28;20117;-70
2023/03/29 01:48:27;;;;;;;3.67;0.70;;;;;;;;;;4992207;28;20030;-69
2023/03/29 01:50:59;;;;;;;2.92;0.73;;;;;;;;;;4994479;28;20157;-69
2023/03/29 01:53:38;;;;;;;3.58;0.90;;;;;;;;;;4993338;28;20088;-69
2023/03/29 01:56:15;;;;;;;2.95;0.73;;;;;;;;;;4995238;28;20417;-69
2023/03/29 01:58:46;;;;;;;2.17;0.80;;;;;;;;;;4996855;28;20029;-69
2023/03/29 02:01:17;;;;;;;2.22;0.80;;;;;;;;;;4994021;28;20056;-70
2023/03/29 02:03:48;;;;;;;2.75;0.80;;;;;;;;;;5009189;28;20128;-70
2023/03/29 02:06:17;;;;;;;2.42;0.80;;;;;;;;;;4993553;28;20038;-70
2023/03/29 02:08:44;;;;;;;4.05;0.95;;;;;;;;;;4992903;28;20410;-69
2023/03/29 02:11:10;;;;;;;4.47;1.00;;;;;;;;;;4992240;28;20466;-69
2023/03/29 02:13:35;;;;;;;2.95;0.90;;;;;;;;;;4991335;28;20065;-69
2023/03/29 02:16:10;;;;;;;4.63;0.93;;;;;;;;;;4995612;28;20066;-69
2023/03/29 02:18:38;;;;;;;3.60;0.90;;;;;;;;;;4996791;28;20030;-70
2023/03/29 02:21:04;;;;;;;3.17;1.10;;;;;;;;;;4994454;28;20066;-69
2023/03/29 02:23:33;;;;;;;3.65;0.82;;;;;;;;;;4993793;28;20646;-69
2023/03/29 02:25:59;;;;;;;5.28;0.90;;;;;;;;;;4993929;28;20488;-70
2023/03/29 02:28:27;;;;;;;4.10;0.80;;;;;;;;;;4993818;28;20029;-70
2023/03/29 02:31:06;;;;;;;2.95;0.80;;;;;;;;;;4993775;28;20038;-69
2023/03/29 02:33:53;;;;;;;5.10;0.95;;;;;;;;;;4995621;28;20465;-70
2023/03/29 02:36:23;;;;;;;2.45;0.80;;;;;;;;;;5002250;28;20034;-69
2023/03/29 02:38:50;;;;;;;3.17;0.90;;;;;;;;;;4995856;28;20018;-70
2023/03/29 02:41:16;;;;;;;2.88;0.90;;;;;;;;;;4991356;28;20101;-70
2023/03/29 02:43:45;;;;;;;2.58;0.70;;;;;;;;;;4991076;28;20289;-69
2023/03/29 02:46:12;;;;;;;4.85;0.90;;;;;;;;;;4997739;28;20384;-69
2023/03/29 02:48:37;;;;;;;4.13;0.93;;;;;;;;;;4993520;28;20410;-69
2023/03/29 02:51:10;;;;;;;2.85;0.90;;;;;;;;;;4996683;28;20348;-69
2023/03/29 02:53:44;;;;;;;3.78;1.10;;;;;;;;;;4997660;28;20520;-69
2023/03/29 02:56:10;;;;;;;2.70;0.73;;;;;;;;;;4994591;28;20033;-69
2023/03/29 02:58:35;;;;;;;6.00;0.90;;;;;;;;;;5002594;28;20109;-69
2023/03/29 03:01:01;;;;;;;3.28;0.80;;;;;;;;;;4995954;28;20033;-69
2023/03/29 03:03:27;;;;;;;2.53;0.90;;;;;;;;;;4997384;28;20494;-69
2023/03/29 03:05:53;;;;;;;5.38;0.88;;;;;;;;;;4995932;28;20038;-69
2023/03/29 03:08:19;;;;;;;2.70;0.73;;;;;;;;;;4997002;28;20147;-69
2023/03/29 03:10:46;;;;;;;3.42;0.80;;;;;;;;;;4992051;28;20027;-69
2023/03/29 03:13:11;;;;;;;2.38;0.80;;;;;;;;;;5001981;28;20037;-69
2023/03/29 03:15:41;;;;;;;3.55;0.82;;;;;;;;;;5001801;28;20044;-69
2023/03/29 03:18:08;;;;;;;3.22;1.00;;;;;;;;;;4993663;28;20033;-69
2023/03/29 03:20:34;;;;;;;3.95;0.90;;;;;;;;;;4993499;28;20033;-69
2023/03/29 03:23:02;;;;;;;2.53;0.60;;;;;;;;;;4997363;28;20069;-69
2023/03/29 03:25:28;;;;;;;5.63;0.80;;;;;;;;;;4991422;28;20044;-69
2023/03/29 03:27:54;;;;;;;2.22;0.68;;;;;;;;;;4993719;28;20042;-69
2023/03/29 03:30:20;;;;;;;4.85;0.90;;;;;;;;;;4991633;28;20031;-69
2023/03/29 03:32:46;;;;;;;4.40;0.80;;;;;;;;;;4995377;28;20037;-70
2023/03/29 03:35:15;;;;;;;3.65;0.82;;;;;;;;;;4991431;28;20030;-68
2023/03/29 03:37:40;;;;;;;1.48;0.88;;;;;;;;;;4990460;28;20049;-69
2023/03/29 03:40:10;;;;;;;5.93;0.98;;;;;;;;;;4991543;28;20030;-69
2023/03/29 03:42:38;;;;;;;1.90;0.73;;;;;;;;;;4996368;28;20060;-70
2023/03/29 03:45:04;;;;;;;3.80;0.80;;;;;;;;;;5001028;28;20105;-70
2023/03/29 03:47:29;;;;;;;4.35;0.88;;;;;;;;;;4995730;28;20058;-70
2023/03/29 03:49:55;;;;;;;2.40;0.80;;;;;;;;;;5001667;28;20034;-69
2023/03/29 03:52:20;;;;;;;5.38;0.90;;;;;;;;;;5001028;28;20030;-69
2023/03/29 03:54:47;;;;;;;4.70;0.98;;;;;;;;;;4999426;28;20034;-70
2023/03/29 03:57:13;;;;;;;7.95;1.05;;;;;;;;;;5000689;28;20027;-70
2023/03/29 03:59:38;;;;;;;5.60;1.00;;;;;;;;;;5001149;28;20094;-69
2023/03/29 04:02:04;;;;;;;7.57;0.90;;;;;;;;;;5001456;28;20346;-70
2023/03/29 04:04:30;;;;;;;4.75;0.90;;;;;;;;;;4993336;28;20037;-70
2023/03/29 04:07:01;;;;;;;3.33;0.90;;;;;;;;;;4992195;28;20394;-70
2023/03/29 04:09:31;;;;;;;4.35;1.10;;;;;;;;;;5005940;28;20034;-70
2023/03/29 04:11:58;;;;;;;3.47;0.90;;;;;;;;;;4989625;28;20049;-70
2023/03/29 04:14:24;;;;;;;3.40;0.90;;;;;;;;;;4992788;28;20050;-70
2023/03/29 04:16:51;;;;;;;2.80;0.77;;;;;;;;;;4991658;28;20100;-70
2023/03/29 04:19:16;;;;;;;3.53;0.70;;;;;;;;;;4992014;28;20038;-69
2023/03/29 04:21:44;;;;;;;2.55;0.77;;;;;;;;;;4991824;28;20026;-69
2023/03/29 04:24:10;;;;;;;6.20;1.10;;;;;;;;;;4993074;28;20033;-69
2023/03/29 04:26:36;;;;;;;1.95;0.70;;;;;;;;;;5008595;28;20026;-69
2023/03/29 04:29:01;;;;;;;2.60;0.80;;;;;;;;;;4990940;28;20050;-69
2023/03/29 04:31:27;;;;;;;4.07;1.00;;;;;;;;;;4990782;28;20030;-69
2023/03/29 04:33:52;;;;;;;5.57;1.00;;;;;;;;;;4990660;28;20022;-69
2023/03/29 04:36:18;;;;;;;3.28;0.90;;;;;;;;;;4994263;28;20011;-70
2023/03/29 04:38:43;;;;;;;2.88;0.88;;;;;;;;;;4995319;28;20106;-69
2023/03/29 04:41:08;;;;;;;2.40;0.90;;;;;;;;;;4994749;28;20044;-69
2023/03/29 04:43:35;;;;;;;1.67;0.90;;;;;;;;;;4999721;28;20018;-69
2023/03/29 04:46:01;;;;;;;2.97;1.00;;;;;;;;;;5001301;28;20025;-70
2023/03/29 04:48:27;;;;;;;4.28;1.20;;;;;;;;;;5001148;28;20022;-72
2023/03/29 04:50:53;;;;;;;2.95;1.00;;;;;;;;;;5001462;28;20037;-70
2023/03/29 04:53:19;;;;;;;3.45;1.02;;;;;;;;;;5004904;28;20018;-70
2023/03/29 04:55:46;;;;;;;4.78;0.90;;;;;;;;;;5003765;28;20026;-71
2023/03/29 04:58:11;;;;;;;4.32;1.00;;;;;;;;;;5004006;28;20041;-71
2023/03/29 05:00:37;;;;;;;4.35;1.10;;;;;;;;;;5004727;28;20081;-71
2023/03/29 05:03:03;;;;;;;1.58;0.80;;;;;;;;;;5002858;28;20066;-71
2023/03/29 05:05:29;;;;;;;5.10;1.20;;;;;;;;;;5004217;28;20038;-72
2023/03/29 05:07:54;;;;;;;4.43;1.35;;;;;;;;;;5004084;28;20023;-73
2023/03/29 05:10:20;;;;;;;4.95;0.95;;;;;;;;;;5003473;28;20069;-72
2023/03/29 05:12:46;;;;;;;3.33;1.00;;;;;;;;;;5004919;28;20026;-77
2023/03/29 05:15:11;;;;;;;4.03;1.25;;;;;;;;;;5003766;28;20038;-74
2023/03/29 05:17:37;;;;;;;3.60;1.17;;;;;;;;;;5003101;28;20026;-73
2023/03/29 05:20:09;;;;;;;3.40;1.10;;;;;;;;;;5004107;28;20026;-72
2023/03/29 05:22:35;;;;;;;8.88;1.42;;;;;;;;;;5004602;28;20018;-73
2023/03/29 05:25:00;;;;;;;4.45;1.20;;;;;;;;;;5005027;28;20026;-72
2023/03/29 05:27:26;;;;;;;5.93;1.13;;;;;;;;;;5004666;28;20090;-73
2023/03/29 05:29:52;;;;;;;4.93;1.20;;;;;;;;;;5002843;28;20076;-73
2023/03/29 05:32:17;;;;;;;5.07;1.17;;;;;;;;;;5003353;28;20553;-73
2023/03/29 05:34:42;;;;;;;4.38;1.10;;;;;;;;;;5003176;28;20368;-71
2023/03/29 05:37:09;;;;;;;5.18;1.27;;;;;;;;;;5004733;28;20213;-71
2023/03/29 05:39:36;;;;;;;3.92;1.20;;;;;;;;;;4995896;28;20122;-72
2023/03/29 05:42:03;;;;;;;6.40;1.60;;;;;;;;;;4999184;28;20026;-71
2023/03/29 05:44:28;;;;;;;6.10;1.17;;;;;;;;;;4994040;28;20030;-72
2023/03/29 05:46:54;;;;;;;7.80;1.60;;;;;;;;;;4990983;28;20044;-72
2023/03/29 05:49:20;;;;;;;4.45;1.52;;;;;;;;;;4991377;28;20030;-72
2023/03/29 05:51:45;;;;;;;6.32;1.73;;;;;;;;;;4990145;28;20411;-72
2023/03/29 05:54:11;;;;;;;9.07;1.90;;;;;;;;;;4990416;28;20041;-73
2023/03/29 05:56:36;;;;;;;6.95;1.40;;;;;;;;;;4988967;28;20026;-71
2023/03/29 05:59:02;;;;;;;10.35;1.50;;;;;;;;;;4990433;28;20026;-72
2023/03/29 06:01:27;;;;;;;9.20;1.58;;;;;;;;;;4990407;28;20600;-72
2023/03/29 06:03:54;;;;;;;9.15;1.80;;;;;;;;;;4990579;28;20029;-72
2023/03/29 06:06:20;;;;;;;5.45;1.50;;;;;;;;;;4989022;28;20136;-71
2023/03/29 06:08:46;;;;;;;5.82;1.40;;;;;;;;;;4990356;28;20019;-72
2023/03/29 06:11:12;;;;;;;5.30;1.38;;;;;;;;;;4990988;28;20405;-72
2023/03/29 06:13:38;;;;;;;4.80;1.50;;;;;;;;;;4992628;28;20521;-70
2023/03/29 06:16:05;;;;;;;5.60;1.63;;;;;;;;;;4991459;28;20128;-73
2023/03/29 06:18:34;;;;;;;8.27;1.98;;;;;;;;;;4992819;28;20022;-73
2023/03/29 06:21:03;;;;;;;5.53;1.60;;;;;;;;;;4992568;28;20445;-72
2023/03/29 06:23:29;;;;;;;9.68;1.48;;;;;;;;;;4992949;28;20030;-72
2023/03/29 06:25:55;;;;;;;5.40;1.65;;;;;;;;;;4992639;28;20029;-71
2023/03/29 06:28:21;;;;;;;8.18;1.95;;;;;;;;;;4991292;28;20022;-72
2023/03/29 06:30:47;;;;;;;11.57;1.90;;;;;;;;;;4992470;28;20026;-71
2023/03/29 06:33:17;;;;;;;7.20;1.60;;;;;;;;;;4992660;28;20542;-71
2023/03/29 06:35:45;;;;;;;7.85;1.70;;;;;;;;;;4992561;28;20026;-72
2023/03/29 06:38:10;;;;;;;11.85;1.67;;;;;;;;;;4992424;28;20034;-71
2023/03/29 06:40:39;;;;;;;6.10;1.75;;;;;;;;;;4992307;28;20552;-71
2023/03/29 06:43:05;;;;;;;9.75;1.92;;;;;;;;;;4992273;28;20126;-72
2023/03/29 06:45:38;;;;;;;6.72;1.52;;;;;;;;;;4992410;28;20034;-72
2023/03/29 06:48:05;;;;;;;8.38;1.50;;;;;;;;;;4992211;28;20032;-72
2023/03/29 06:50:30;;;;;;;4.53;1.42;;;;;;;;;;4992167;28;20023;-72
2023/03/29 06:52:56;;;;;;;8.23;1.67;;;;;;;;;;4991967;28;20077;-72
2023/03/29 06:55:23;;;;;;;6.63;1.75;;;;;;;;;;4992134;28;20023;-74
2023/03/29 06:57:48;;;;;;;11.45;1.80;;;;;;;;;;4991634;28;20552;-73
2023/03/29 07:00:26;;;;;;;9.35;2.00;;;;;;;;;;4991967;28;20026;-72
2023/03/29 07:02:57;;;;;;;9.25;1.77;;;;;;;;;;4990835;28;20117;-71
2023/03/29 07:05:26;;;;;;;5.85;1.60;;;;;;;;;;4991958;28;20030;-71
2023/03/29 07:07:54;;;;;;;9.13;1.67;;;;;;;;;;4991929;28;20033;-71
2023/03/29 07:10:25;;;;;;;5.38;1.80;;;;;;;;;;4991718;28;20029;-72
2023/03/29 07:12:51;;;;;;;11.88;1.85;;;;;;;;;;4991747;28;20022;-71
2023/03/29 07:15:19;;;;;;;7.75;1.80;;;;;;;;;;4991578;28;20394;-70
2023/03/29 07:17:44;;;;;;;6.25;1.50;;;;;;;;;;4991679;28;20026;-71
2023/03/29 07:20:13;;;;;;;9.05;1.70;;;;;;;;;;4991489;28;20029;-74
2023/03/29 07:22:43;;;;;;;10.32;1.80;;;;;;;;;;4991489;28;20029;-73
2023/03/29 07:25:11;;;;;;;9.30;1.67;;;;;;;;;;4991690;28;20034;-73
2023/03/29 07:27:37;;;;;;;5.40;1.63;;;;;;;;;;4991594;28;20253;-73
2023/03/29 07:30:09;;;;;;;6.22;1.73;;;;;;;;;;4991406;28;20100;-72
2023/03/29 07:32:39;;;;;;;7.85;1.75;;;;;;;;;;4991507;28;20034;-73
2023/03/29 07:35:06;;;;;;;7.55;1.70;;;;;;;;;;4991394;28;20037;-72
2023/03/29 07:37:33;;;;;;;5.53;1.65;;;;;;;;;;4990002;28;20516;-72
2023/03/29 07:39:59;;;;;;;7.30;1.60;;;;;;;;;;4991248;28;20101;-72
2023/03/29 07:42:26;;;;;;;8.75;1.60;;;;;;;;;;4991451;28;20030;-72
2023/03/29 07:44:53;;;;;;;9.77;1.52;;;;;;;;;;4991267;28;20027;-73
2023/03/29 07:47:18;;;;;;;7.75;1.50;;;;;;;;;;4991325;28;20027;-71
2023/03/29 07:49:44;;;;;;;9.48;1.60;;;;;;;;;;4990933;28;20038;-73
2023/03/29 07:52:09;;;;;;;4.50;1.50;;;;;;;;;;4990982;28;20031;-72
2023/03/29 07:54:34;;;;;;;4.85;1.33;;;;;;;;;;4991110;28;20519;-73
2023/03/29 07:57:00;;;;;;;6.43;1.73;;;;;;;;;;4991181;28;20031;-72
2023/03/29 07:59:26;;;;;;;9.50;1.60;;;;;;;;;;4990872;28;20034;-73
2023/03/29 08:01:52;;;;;;;5.30;1.55;;;;;;;;;;4991072;28;20058;-72
2023/03/29 08:04:17;;;;;;;7.82;1.50;;;;;;;;;;4990942;28;20026;-71
2023/03/29 08:06:43;;;;;;;7.47;1.73;;;;;;;;;;4990765;28;20026;-73
2023/03/29 08:09:08;;;;;;;7.95;1.70;;;;;;;;;;4988695;28;20031;-73
2023/03/29 08:11:33;;;;;;;7.13;1.85;;;;;;;;;;4990677;28;20057;-73
2023/03/29 08:13:59;;;;;;;8.68;1.75;;;;;;;;;;4990702;28;20073;-72
2023/03/29 08:16:25;;;;;;;9.55;1.60;;;;;;;;;;4990856;28;20026;-72
2023/03/29 08:18:50;;;;;;;7.20;1.80;;;;;;;;;;4990644;28;20084;-72
2023/03/29 08:21:16;;;;;;;10.45;1.70;;;;;;;;;;4990355;28;20034;-72
2023/03/29 08:23:41;;;;;;;5.80;1.42;;;;;;;;;;4990742;28;20427;-73
2023/03/29 08:26:10;;;;;;;8.15;1.70;;;;;;;;;;4990590;28;20526;-72
2023/03/29 08:28:35;;;;;;;9.90;1.77;;;;;;;;;;4990650;28;20030;-71
2023/03/29 08:31:01;;;;;;;6.68;1.45;;;;;;;;;;4989452;28;20606;-72
2023/03/29 08:33:26;;;;;;;3.72;1.60;;;;;;;;;;4990649;28;20035;-72
2023/03/29 08:35:52;;;;;;;5.40;1.80;;;;;;;;;;4990829;28;20037;-72
2023/03/29 08:38:18;;;;;;;3.80;1.60;;;;;;;;;;4990341;28;20459;-72
2023/03/29 08:40:47;;;;;;;4.65;1.67;;;;;;;;;;4990498;28;20030;-72
2023/03/29 08:43:31;;;;;;;6.63;1.55;;;;;;;;;;4990526;28;20038;-71
2023/03/29 08:46:15;;;;;;;8.65;1.70;;;;;;;;;;4990454;28;20040;-72
2023/03/29 08:48:46;;;;;;;13.32;3.30;;;;;;;;;;4990481;28;20054;-72
2023/03/29 08:51:26;;;;;;;10.55;2.90;;;;;;;;;;4990269;28;20030;-72
2023/03/29 08:53:54;;;;;;;;;;;;;;;;;;4990912;28;20038;-72
2023/03/29 08:56:24;;;;;;;8.55;2.90;;;;;;;;;;4990329;28;19913;-72
2023/03/29 08:58:51;;;;;;;8.43;2.60;;;;;;;;;;4990402;28;20027;-72
2023/03/29 09:01:17;;;;;;;8.27;2.63;;;;;;;;;;4990168;28;20092;-71
2023/03/29 09:03:48;;;;;;;9.27;2.50;;;;;;;;;;4990452;28;20037;-73
2023/03/29 09:06:14;;;;;;;;;;;;;;;;;;4990758;28;20026;-72
2023/03/29 09:08:46;;;;;;;11.63;2.30;;;;;;;;;;5005606;28;19914;-71
2023/03/29 09:11:23;;;;;;;8.85;2.67;;;;;;;;;;4989004;28;20123;-71
2023/03/29 09:14:05;;;;;;;9.05;2.80;;;;;;;;;;4990153;28;20494;-71
2023/03/29 09:16:40;;;;;;;7.22;2.40;;;;;;;;;;4989134;28;20053;-71
2023/03/29 09:19:51;;;;;;;6.10;2.33;;;;;;;;;;4988833;28;20027;-72
2023/03/29 09:22:31;;;;;;;8.80;2.50;;;;;;;;;;4940681;28;20070;-73
2023/03/29 09:25:15;;;;;;;7.88;2.28;;;;;;;;;;4992562;28;20085;-72
2023/03/29 09:27:50;;;;;;;6.20;2.30;;;;;;;;;;4993905;28;20118;-73
2023/03/29 09:30:25;;;;;;;7.88;2.47;;;;;;;;;;4993778;28;20026;-73
2023/03/29 09:33:21;;;;;;;5.15;2.00;;;;;;;;;;4993940;28;20034;-72
2023/03/29 09:35:57;;;;;;;8.90;1.88;;;;;;;;;;4993686;28;20022;-73
2023/03/29 09:38:23;;;;;;;7.85;2.20;;;;;;;;;;4993577;28;20035;-73
2023/03/29 09:40:58;;;;;;;6.15;1.67;;;;;;;;;;4992297;28;20520;-72
2023/03/29 09:43:34;;;;;;;7.82;2.20;;;;;;;;;;4992245;28;20030;-73
2023/03/29 09:46:04;;;;;;;10.98;2.88;;;;;;;;;;4993484;28;20165;-73
2023/03/29 09:48:36;;;;;;;7.65;1.90;;;;;;;;;;4993365;28;20537;-71
2023/03/29 09:51:05;;;;;;;9.48;2.53;;;;;;;;;;4993381;28;20114;-73
2023/03/29 09:53:31;;;;;;;7.65;1.95;;;;;;;;;;4993096;28;20030;-72
2023/03/29 09:55:58;;;;;;;8.77;1.98;;;;;;;;;;4991383;28;20544;-72
2023/03/29 09:58:26;;;;;;;20.42;2.78;;;;;;;;;;4993418;28;20058;-72
2023/03/29 10:00:55;;;;;;;5.32;1.60;;;;;;;;;;4993100;28;20117;-73
2023/03/29 10:03:24;;;;;;;5.60;1.83;;;;;;;;;;4993465;28;20034;-72
2023/03/29 10:05:53;;;;;;;9.88;1.50;;;;;;;;;;4993155;28;20034;-72
2023/03/29 10:08:22;;;;;;;6.97;1.73;;;;;;;;;;4992942;28;20032;-72
2023/03/29 10:10:48;;;;;;;7.32;1.58;;;;;;;;;;4992757;28;20027;-70
2023/03/29 10:13:25;;;;;;;6.65;1.50;;;;;;;;;;4992950;28;20030;-71
2023/03/29 10:16:06;;;;;;;7.50;1.90;;;;;;;;;;4991624;28;20145;-70
2023/03/29 10:18:32;;;;;;;;;;;;;;;;;;4993484;28;20536;-71
2023/03/29 10:20:59;;;;;;;13.02;1.77;;;;;;;;;;4992593;28;19913;-70
2023/03/29 10:23:30;;;;;;;7.00;1.98;;;;;;;;;;4991533;28;20022;-72
2023/03/29 10:25:56;;;;;;;7.90;1.75;;;;;;;;;;4991320;28;20027;-71
2023/03/29 10:28:23;;;;;;;5.47;1.70;;;;;;;;;;4992614;28;20052;-72
2023/03/29 10:30:57;;;;;;;8.75;1.63;;;;;;;;;;4992373;28;20030;-71
2023/03/29 10:33:26;;;;;;;6.07;1.75;;;;;;;;;;4991831;28;20486;-70
2023/03/29 10:35:55;;;;;;;7.80;1.80;;;;;;;;;;4992519;28;20025;-72
2023/03/29 10:38:26;;;;;;;5.35;1.58;;;;;;;;;;4991126;28;20513;-72
2023/03/29 10:40:53;;;;;;;4.82;1.42;;;;;;;;;;4992791;28;20109;-76
2023/03/29 10:43:26;;;;;;;4.47;1.58;;;;;;;;;;4992570;28;20042;-72
2023/03/29 10:45:54;;;;;;;5.18;1.50;;;;;;;;;;4992627;28;20109;-71
2023/03/29 10:48:27;;;;;;;5.13;1.65;;;;;;;;;;4992324;28;20018;-72
2023/03/29 10:50:57;;;;;;;6.85;1.60;;;;;;;;;;4992193;28;20394;-73
2023/03/29 10:53:31;;;;;;;6.10;1.90;;;;;;;;;;4992226;28;20033;-72
2023/03/29 10:56:09;;;;;;;5.28;1.40;;;;;;;;;;4992374;28;20022;-71
2023/03/29 10:58:54;;;;;;;5.75;1.77;;;;;;;;;;4992369;28;20390;-72
2023/03/29 11:01:45;;;;;;;5.05;1.65;;;;;;;;;;4991853;28;20014;-72
2023/03/29 11:04:21;;;;;;;6.95;1.60;;;;;;;;;;4992020;28;20049;-72
2023/03/29 11:07:16;;;;;;;6.22;1.60;;;;;;;;;;4991853;28;20073;-73
2023/03/29 11:10:18;;;;;;;6.47;1.80;;;;;;;;;;4991896;28;20019;-72
2023/03/29 11:12:58;;;;;;;9.35;1.90;;;;;;;;;;4991872;28;20609;-72
2023/03/29 11:15:38;;;;;;;5.57;1.70;;;;;;;;;;4990522;28;20549;-72
2023/03/29 11:18:22;;;;;;;7.30;1.60;;;;;;;;;;4991881;28;20030;-72
2023/03/29 11:21:02;;;;;;;12.63;2.20;;;;;;;;;;4991507;28;20106;-72
2023/03/29 11:23:37;;;;;;;7.07;1.97;;;;;;;;;;4990346;28;20516;-72
2023/03/29 11:26:21;;;;;;;8.68;2.00;;;;;;;;;;4991519;28;20375;-71
2023/03/29 11:29:27;;;;;;;12.65;1.95;;;;;;;;;;4991612;28;20034;-72
2023/03/29 11:32:02;;;;;;;7.78;2.05;;;;;;;;;;4982431;28;20045;-73
2023/03/29 11:34:28;;;;;;;7.63;1.85;;;;;;;;;;4990190;28;20054;-72
2023/03/29 11:37:09;;;;;;;9.93;2.13;;;;;;;;;;4991342;28;20026;-72
2023/03/29 11:40:04;;;;;;;6.95;1.80;;;;;;;;;;4991131;28;20026;-72
2023/03/29 11:42:33;;;;;;;7.88;1.85;;;;;;;;;;4989802;28;20062;-72
2023/03/29 11:45:01;;;;;;;5.78;1.42;;;;;;;;;;4991187;28;20475;-72
2023/03/29 11:47:40;;;;;;;8.10;1.58;;;;;;;;;;4991297;28;20045;-73
2023/03/29 11:50:17;;;;;;;7.90;1.60;;;;;;;;;;4991401;28;20632;-73
2023/03/29 11:52:57;;;;;;;11.88;2.00;;;;;;;;;;4990852;28;20019;-72
2023/03/29 11:55:33;;;;;;;7.83;2.00;;;;;;;;;;4991126;28;20093;-72
2023/03/29 11:58:14;;;;;;;8.18;1.67;;;;;;;;;;4991042;28;20076;-72
2023/03/29 12:00:49;;;;;;;8.65;1.75;;;;;;;;;;4990985;28;20019;-71
2023/03/29 12:03:31;;;;;;;6.38;1.50;;;;;;;;;;4990866;28;20089;-73
2023/03/29 12:06:03;;;;;;;12.15;2.13;;;;;;;;;;4990786;28;20023;-72
2023/03/29 12:09:00;;;;;;;9.60;1.88;;;;;;;;;;4989826;28;20519;-72
2023/03/29 12:11:32;;;;;;;6.60;1.70;;;;;;;;;;4985291;28;20077;-72
2023/03/29 12:14:01;;;;;;;9.40;2.00;;;;;;;;;;4990511;28;20038;-72
2023/03/29 12:16:33;;;;;;;5.88;1.60;;;;;;;;;;4990844;28;20116;-72
2023/03/29 12:19:04;;;;;;;9.98;1.75;;;;;;;;;;4990778;28;20053;-72
2023/03/29 12:21:32;;;;;;;8.43;1.98;;;;;;;;;;4990495;28;20153;-71
2023/03/29 12:23:58;;;;;;;10.30;1.90;;;;;;;;;;4990820;28;20041;-70
2023/03/29 12:26:39;;;;;;;5.82;1.73;;;;;;;;;;4990855;28;20052;-72
2023/03/29 12:29:09;;;;;;;7.82;1.63;;;;;;;;;;4989586;28;20069;-72
2023/03/29 12:31:53;;;;;;;11.45;1.70;;;;;;;;;;4990239;28;20085;-72
2023/03/29 12:34:33;;;;;;;5.30;1.70;;;;;;;;;;4990441;28;20065;-71
2023/03/29 12:37:11;;;;;;;8.32;2.05;;;;;;;;;;4990514;28;20037;-70
2023/03/29 12:39:37;;;;;;;8.52;1.70;;;;;;;;;;4990554;28;20042;-72
2023/03/29 12:42:18;;;;;;;5.15;1.45;;;;;;;;;;4989068;28;20066;-72
2023/03/29 12:44:57;;;;;;;7.90;1.80;;;;;;;;;;4990648;28;20030;-72
2023/03/29 12:47:26;;;;;;;8.82;1.92;;;;;;;;;;4989204;28;20058;-73
2023/03/29 12:49:58;;;;;;;10.00;1.92;;;;;;;;;;4990473;28;20022;-73
2023/03/29 12:52:26;;;;;;;9.00;1.75;;;;;;;;;;4990175;28;20566;-73
2023/03/29 12:54:53;;;;;;;9.60;2.00;;;;;;;;;;4989199;28;20121;-73
2023/03/29 12:57:26;;;;;;;18.00;3.03;;;;;;;;;;4992902;28;20026;-72
2023/03/29 12:59:52;;;;;;;11.80;1.80;;;;;;;;;;4993235;28;20026;-72
2023/03/29 13:02:18;;;;;;;6.38;1.60;;;;;;;;;;4994309;28;20077;-73
2023/03/29 13:04:55;;;;;;;7.22;1.80;;;;;;;;;;4994283;28;20034;-72
2023/03/29 13:07:26;;;;;;;8.00;1.98;;;;;;;;;;4992967;28;20026;-72
2023/03/29 13:10:01;;;;;;;7.60;1.77;;;;;;;;;;4994050;28;20030;-71
2023/03/29 13:12:43;;;;;;;9.27;2.05;;;;;;;;;;4994049;28;20520;-71
2023/03/29 13:15:17;;;;;;;6.53;1.60;;;;;;;;;;4993853;28;20121;-71
2023/03/29 13:17:55;;;;;;;12.55;1.90;;;;;;;;;;4994221;28;20113;-71
2023/03/29 13:20:51;;;;;;;10.10;1.92;;;;;;;;;;4993897;28;20026;-70
2023/03/29 13:23:41;;;;;;;7.97;1.95;;;;;;;;;;4993619;28;20026;-72
2023/03/29 13:26:45;;;;;;;10.60;2.08;;;;;;;;;;4992414;28;20045;-71
2023/03/29 13:29:34;;;;;;;7.95;2.00;;;;;;;;;;4972650;28;20045;-72
2023/03/29 13:32:21;;;;;;;7.50;2.30;;;;;;;;;;4993509;28;20665;-72
2023/03/29 13:34:56;;;;;;;9.68;2.40;;;;;;;;;;4992442;28;20121;-72
2023/03/29 13:37:39;;;;;;;9.60;1.83;;;;;;;;;;4993606;28;20034;-72
2023/03/29 13:40:28;;;;;;;6.35;1.63;;;;;;;;;;4993802;28;20030;-72
2023/03/29 13:42:59;;;;;;;10.90;1.80;;;;;;;;;;4993368;28;20096;-72
2023/03/29 13:45:28;;;;;;;8.60;1.83;;;;;;;;;;4993356;28;20034;-73
2023/03/29 13:48:23;;;;;;;11.13;2.13;;;;;;;;;;4993171;28;20118;-72
2023/03/29 13:51:00;;;;;;;6.15;1.80;;;;;;;;;;4970782;28;20042;-72
2023/03/29 13:53:28;;;;;;;11.13;2.17;;;;;;;;;;4993181;28;20177;-72
2023/03/29 13:55:56;;;;;;;8.75;1.85;;;;;;;;;;4993378;28;20498;-72
2023/03/29 13:58:42;;;;;;;10.13;2.63;;;;;;;;;;4993177;28;20490;-72
2023/03/29 14:01:18;;;;;;;11.65;2.05;;;;;;;;;;4993252;28;20065;-72
2023/03/29 14:03:47;;;;;;;9.20;2.10;;;;;;;;;;4993037;28;20030;-73
2023/03/29 14:06:16;;;;;;;8.70;2.10;;;;;;;;;;4992888;28;20034;-71
2023/03/29 14:08:43;;;;;;;9.65;1.80;;;;;;;;;;4992088;28;20048;-72
2023/03/29 14:11:27;;;;;;;11.52;2.25;;;;;;;;;;4993036;28;20029;-71
2023/03/29 14:13:57;;;;;;;9.13;2.00;;;;;;;;;;4992678;28;20039;-72
2023/03/29 14:16:30;;;;;;;10.73;2.15;;;;;;;;;;4993009;28;20030;-72
2023/03/29 14:19:04;;;;;;;13.13;2.22;;;;;;;;;;4992836;28;20108;-72
2023/03/29 14:21:30;;;;;;;8.77;1.98;;;;;;;;;;4992567;28;20105;-71
2023/03/29 14:24:02;;;;;;;10.05;2.20;;;;;;;;;;4991415;28;20172;-72
2023/03/29 14:26:33;;;;;;;11.57;2.13;;;;;;;;;;4992631;28;20428;-72
2023/03/29 14:29:00;;;;;;;13.95;2.05;;;;;;;;;;4993048;28;20060;-71
2023/03/29 14:31:34;;;;;;;12.77;2.10;;;;;;;;;;4993044;28;20078;-71
2023/03/29 14:34:02;;;;;;;9.20;2.05;;;;;;;;;;4992541;28;20030;-72
2023/03/29 14:36:31;;;;;;;9.10;2.35;;;;;;;;;;4992186;28;20036;-73
2023/03/29 14:39:02;;;;;;;12.00;2.08;;;;;;;;;;4992192;28;20529;-72
2023/03/29 14:41:34;;;;;;;10.65;1.98;;;;;;;;;;4992351;28;20023;-71
2023/03/29 14:44:01;;;;;;;7.38;2.13;;;;;;;;;;4992336;28;20034;-71
2023/03/29 14:46:27;;;;;;;8.27;1.80;;;;;;;;;;4992352;28;20023;-71
2023/03/29 14:48:54;;;;;;;6.82;1.77;;;;;;;;;;4992352;28;20033;-70
2023/03/29 14:51:22;;;;;;;8.15;1.90;;;;;;;;;;4990901;28;20482;-71
2023/03/29 14:53:48;;;;;;;6.15;2.03;;;;;;;;;;4992031;28;20034;-71
2023/03/29 14:56:17;;;;;;;5.80;1.70;;;;;;;;;;4992205;28;20058;-72
2023/03/29 14:58:45;;;;;;;7.07;1.77;;;;;;;;;;4992194;28;20102;-71
2023/03/29 15:01:22;;;;;;;8.00;1.88;;;;;;;;;;4992088;28;20494;-73
2023/03/29 15:03:55;;;;;;;11.00;1.88;;;;;;;;;;4991987;28;20034;-72
2023/03/29 15:06:24;;;;;;;7.32;1.90;;;;;;;;;;4991732;28;20026;-72